createdAt,value
2019-01-08T00:01:36.589Z,3.27
2019-01-08T00:04:07.829Z,3.23
2019-01-08T00:06:38.593Z,3.19
2019-01-08T00:09:09.572Z,3.21
2019-01-08T00:11:40.766Z,3.16
2019-01-08T00:14:11.520Z,3.20
2019-01-08T00:16:42.356Z,3.22
2019-01-08T00:19:13.710Z,3.22
2019-01-08T00:21:44.486Z,3.19
2019-01-08T00:24:15.564Z,3.20
2019-01-08T00:26:46.553Z,3.22
2019-01-08T00:29:17.385Z,3.23
2019-01-08T00:31:48.241Z,3.20
2019-01-08T00:34:19.219Z,3.14
2019-01-08T00:36:50.640Z,3.18
2019-01-08T00:39:21.693Z,3.13
2019-01-08T00:41:52.816Z,3.13
2019-01-08T00:44:24.112Z,3.16
2019-01-08T00:46:55.171Z,3.12
2019-01-08T00:49:26.180Z,3.20
2019-01-08T00:51:57.016Z,3.14
2019-01-08T00:54:27.771Z,3.15
2019-01-08T00:56:58.609Z,3.14
2019-01-08T00:59:29.371Z,3.14
2019-01-08T01:02:00.447Z,3.15
2019-01-08T01:04:31.174Z,3.13
2019-01-08T01:07:02.021Z,3.12
2019-01-08T01:09:32.932Z,3.16
2019-01-08T01:12:03.857Z,3.19
2019-01-08T01:14:34.919Z,3.16
2019-01-08T01:17:05.909Z,3.18
2019-01-08T01:19:36.929Z,3.20
2019-01-08T01:22:07.715Z,3.21
2019-01-08T01:24:38.468Z,3.22
2019-01-08T01:27:09.240Z,3.23
2019-01-08T01:29:40.644Z,3.25
2019-01-08T01:32:11.491Z,3.26
2019-01-08T01:34:42.256Z,3.27
2019-01-08T01:37:13.100Z,3.28
2019-01-08T01:39:43.907Z,3.29
2019-01-08T01:42:14.689Z,3.33
2019-01-08T01:44:45.856Z,3.32
2019-01-08T01:47:16.755Z,3.32
2019-01-08T01:49:47.554Z,3.31
2019-01-08T01:52:18.658Z,3.30
2019-01-08T01:54:49.551Z,3.32
2019-01-08T01:57:21.177Z,3.28
2019-01-08T01:59:52.258Z,3.29
2019-01-08T02:02:23.130Z,3.26
2019-01-08T02:04:54.461Z,3.27
2019-01-08T02:07:25.565Z,3.26
2019-01-08T02:09:56.354Z,3.28
2019-01-08T02:12:27.554Z,3.25
2019-01-08T02:14:58.416Z,3.29
2019-01-08T02:17:29.447Z,3.29
2019-01-08T02:20:00.681Z,3.28
2019-01-08T02:22:31.550Z,3.24
2019-01-08T02:25:02.423Z,3.23
2019-01-08T02:27:33.475Z,3.22
2019-01-08T02:30:04.755Z,3.22
2019-01-08T02:32:35.831Z,3.25
2019-01-08T02:35:06.702Z,3.26
2019-01-08T02:37:37.558Z,3.27
2019-01-08T02:40:08.730Z,3.31
2019-01-08T02:42:39.764Z,3.23
2019-01-08T02:45:10.633Z,3.25
2019-01-08T02:47:41.682Z,3.27
2019-01-08T02:50:12.874Z,3.30
2019-01-08T02:52:43.666Z,3.31
2019-01-08T02:55:14.540Z,3.33
2019-01-08T02:57:45.592Z,3.29
2019-01-08T03:00:16.538Z,3.28
2019-01-08T03:02:47.563Z,3.28
2019-01-08T03:05:18.588Z,3.30
2019-01-08T03:07:49.768Z,3.35
2019-01-08T03:10:20.571Z,3.32
2019-01-08T03:12:52.632Z,3.33
2019-01-08T03:15:23.746Z,3.32
2019-01-08T03:17:55.057Z,3.35
2019-01-08T03:20:26.220Z,3.35
2019-01-08T03:22:59.374Z,3.35
2019-01-08T03:25:30.296Z,3.36
2019-01-08T03:28:01.882Z,3.38
2019-01-08T03:30:33.285Z,3.43
2019-01-08T03:33:05.479Z,3.42
2019-01-08T03:35:36.550Z,3.49
2019-01-08T03:38:07.825Z,3.44
2019-01-08T03:40:38.862Z,3.50
2019-01-08T03:43:09.997Z,3.58
2019-01-08T03:45:41.050Z,3.60
2019-01-08T03:48:12.152Z,3.63
2019-01-08T03:50:43.024Z,3.66
2019-01-08T03:53:14.130Z,3.69
2019-01-08T03:55:45.767Z,3.73
2019-01-08T03:58:17.178Z,3.77
2019-01-08T04:00:49.249Z,3.85
2019-01-08T04:03:20.104Z,3.86
2019-01-08T04:05:51.201Z,3.90
2019-01-08T04:08:22.056Z,3.89
2019-01-08T04:10:52.854Z,3.90
2019-01-08T04:13:23.939Z,3.87
2019-01-08T04:15:55.121Z,3.87
2019-01-08T04:18:26.190Z,3.84
2019-01-08T04:20:57.317Z,3.80
2019-01-08T04:23:29.469Z,3.81
2019-01-08T04:26:00.419Z,3.83
2019-01-08T04:28:31.281Z,3.78
2019-01-08T04:31:02.086Z,3.82
2019-01-08T04:33:33.132Z,3.83
2019-01-08T04:36:04.017Z,3.79
2019-01-08T04:38:34.875Z,3.80
2019-01-08T04:41:05.862Z,3.82
2019-01-08T04:43:37.161Z,3.80
2019-01-08T04:46:08.044Z,3.79
2019-01-08T04:48:39.115Z,3.79
2019-01-08T04:51:09.909Z,3.82
2019-01-08T04:53:40.702Z,3.79
2019-01-08T04:56:12.051Z,3.83
2019-01-08T04:58:42.906Z,3.79
2019-01-08T05:01:13.717Z,3.79
2019-01-08T05:03:44.516Z,3.73
2019-01-08T05:06:15.787Z,3.78
2019-01-08T05:08:46.686Z,3.80
2019-01-08T05:11:17.661Z,3.84
2019-01-08T05:13:48.462Z,3.79
2019-01-08T05:16:19.491Z,3.72
2019-01-08T05:18:50.584Z,3.70
2019-01-08T05:21:21.387Z,3.75
2019-01-08T05:23:52.260Z,3.85
2019-01-08T05:26:23.380Z,3.86
2019-01-08T05:28:54.173Z,3.93
2019-01-08T05:31:24.939Z,3.92
2019-01-08T05:33:55.815Z,4.17
2019-01-08T05:36:26.656Z,4.12
2019-01-08T05:38:57.453Z,4.11
2019-01-08T05:41:28.220Z,4.22
2019-01-08T05:43:59.240Z,4.25
2019-01-08T05:46:30.240Z,4.18
2019-01-08T05:49:01.381Z,4.19
2019-01-08T05:51:32.156Z,4.21
2019-01-08T05:54:03.197Z,4.30
2019-01-08T05:56:33.966Z,4.34
2019-01-08T05:59:05.252Z,4.45
2019-01-08T06:01:36.029Z,4.45
2019-01-08T06:04:07.103Z,4.43
2019-01-08T06:06:38.188Z,4.40
2019-01-08T06:09:08.995Z,4.37
2019-01-08T06:11:39.775Z,4.34
2019-01-08T06:14:10.723Z,4.33
2019-01-08T06:16:41.883Z,4.29
2019-01-08T06:19:12.963Z,4.28
2019-01-08T06:21:43.821Z,4.16
2019-01-08T06:24:14.932Z,4.12
2019-01-08T06:26:45.720Z,4.09
2019-01-08T06:29:16.755Z,4.00
2019-01-08T06:31:48.174Z,4.00
2019-01-08T06:34:19.203Z,3.90
2019-01-08T06:36:50.289Z,3.82
2019-01-08T06:39:21.152Z,3.79
2019-01-08T06:41:52.164Z,3.93
2019-01-08T06:44:23.332Z,3.87
2019-01-08T06:46:54.351Z,3.87
2019-01-08T06:49:25.154Z,3.81
2019-01-08T06:51:56.418Z,3.78
2019-01-08T06:54:27.466Z,3.82
2019-01-08T06:56:58.383Z,3.82
2019-01-08T06:59:29.407Z,3.99
2019-01-08T07:02:00.270Z,3.97
2019-01-08T07:04:31.183Z,4.09
2019-01-08T07:07:02.037Z,4.16
2019-01-08T07:09:33.386Z,4.20
2019-01-08T07:12:04.176Z,4.21
2019-01-08T07:14:35.127Z,4.24
2019-01-08T07:17:06.432Z,4.27
2019-01-08T07:19:37.470Z,4.25
2019-01-08T07:22:08.651Z,4.26
2019-01-08T07:24:39.761Z,4.21
2019-01-08T07:27:16.301Z,4.15
2019-01-08T07:29:43.294Z,4.05
2019-01-08T07:32:14.387Z,3.95
2019-01-08T07:34:45.259Z,3.96
2019-01-08T07:37:16.267Z,3.99
2019-01-08T07:39:47.078Z,3.95
2019-01-08T07:42:18.230Z,3.93
2019-01-08T07:44:49.022Z,3.85
2019-01-08T07:47:19.805Z,3.89
2019-01-08T07:49:50.903Z,3.95
2019-01-08T07:52:22.031Z,3.99
2019-01-08T07:54:52.974Z,3.96
2019-01-08T07:57:24.245Z,3.97
2019-01-08T07:59:55.105Z,3.99
2019-01-08T08:02:26.194Z,3.97
2019-01-08T08:04:57.300Z,3.96
2019-01-08T08:07:28.439Z,3.97
2019-01-08T08:09:59.261Z,3.93
2019-01-08T08:12:30.302Z,3.97
2019-01-08T08:15:01.176Z,3.86
2019-01-08T08:17:32.579Z,3.97
2019-01-08T08:20:03.703Z,3.93
2019-01-08T08:22:34.478Z,3.97
2019-01-08T08:25:06.207Z,3.92
2019-01-08T08:27:37.258Z,3.85
2019-01-08T08:30:09.246Z,3.87
2019-01-08T08:32:40.376Z,3.86
2019-01-08T08:35:11.651Z,3.92
2019-01-08T08:37:42.753Z,3.93
2019-01-08T08:40:13.626Z,4.02
2019-01-08T08:42:44.996Z,4.04
2019-01-08T08:45:15.790Z,4.11
2019-01-08T08:47:46.575Z,4.20
2019-01-08T08:50:17.938Z,4.30
2019-01-08T08:52:49.038Z,4.34
2019-01-08T08:55:20.130Z,4.38
2019-01-08T08:57:51.155Z,4.43
2019-01-08T09:00:22.363Z,4.57
2019-01-08T09:02:53.644Z,4.63
2019-01-08T09:05:24.467Z,4.57
2019-01-08T09:07:55.323Z,4.60
2019-01-08T09:10:26.112Z,4.71
2019-01-08T09:12:57.618Z,4.80
2019-01-08T09:15:28.417Z,4.89
2019-01-08T09:17:59.483Z,4.93
2019-01-08T09:20:30.552Z,5.08
2019-01-08T09:23:01.617Z,5.06
2019-01-08T09:25:32.412Z,5.15
2019-01-08T09:28:03.189Z,5.29
2019-01-08T09:30:34.363Z,5.35
2019-01-08T09:33:05.532Z,5.36
2019-01-08T09:35:36.382Z,5.45
2019-01-08T09:38:07.562Z,5.42
2019-01-08T09:40:38.404Z,5.42
2019-01-08T09:43:09.786Z,5.48
2019-01-08T09:45:40.565Z,5.53
2019-01-08T09:48:11.347Z,5.51
2019-01-08T09:50:42.406Z,5.50
2019-01-08T09:53:13.401Z,5.58
2019-01-08T09:55:44.249Z,5.64
2019-01-08T09:58:15.090Z,5.74
2019-01-08T10:00:46.317Z,5.73
2019-01-08T10:03:17.630Z,5.77
2019-01-08T10:05:48.801Z,5.81
2019-01-08T10:08:19.566Z,5.79
2019-01-08T10:10:50.573Z,5.80
2019-01-08T10:13:21.706Z,5.73
2019-01-08T10:15:52.948Z,5.70
2019-01-08T10:18:24.437Z,5.72
2019-01-08T10:20:55.287Z,5.80
2019-01-08T10:23:26.056Z,5.88
2019-01-08T10:25:56.906Z,5.82
2019-01-08T10:28:27.738Z,5.80
2019-01-08T10:30:58.817Z,5.74
2019-01-08T10:33:29.570Z,5.76
2019-01-08T10:36:00.855Z,5.71
2019-01-08T10:38:31.915Z,5.65
2019-01-08T10:41:03.002Z,5.70
2019-01-08T10:43:33.840Z,5.66
2019-01-08T10:46:04.608Z,5.63
2019-01-08T10:48:35.436Z,5.68
2019-01-08T10:51:06.289Z,5.63
2019-01-08T10:53:37.324Z,5.59
2019-01-08T10:56:08.186Z,5.60
2019-01-08T10:58:39.040Z,5.54
2019-01-08T11:01:10.102Z,5.40
2019-01-08T11:03:40.940Z,5.48
2019-01-08T11:06:12.140Z,5.48
2019-01-08T11:08:44.127Z,5.47
2019-01-08T11:11:15.182Z,5.45
2019-01-08T11:13:46.570Z,5.50
2019-01-08T11:16:17.649Z,5.51
2019-01-08T11:18:48.646Z,5.50
2019-01-08T11:21:19.721Z,5.55
2019-01-08T11:23:50.562Z,5.62
2019-01-08T11:26:21.556Z,5.68
2019-01-08T11:28:52.391Z,5.70
2019-01-08T11:31:23.236Z,5.63
2019-01-08T11:33:54.066Z,5.64
2019-01-08T11:36:24.923Z,5.64
2019-01-08T11:38:55.920Z,5.62
2019-01-08T11:41:27.673Z,5.68
2019-01-08T11:43:58.508Z,5.66
2019-01-08T11:46:29.292Z,5.63
2019-01-08T11:49:00.528Z,5.61
2019-01-08T11:51:31.312Z,5.62
2019-01-08T11:54:02.370Z,5.65
2019-01-08T11:56:33.228Z,5.69
2019-01-08T11:59:04.233Z,5.63
2019-01-08T12:01:35.380Z,5.61
2019-01-08T12:04:06.151Z,5.68
2019-01-08T12:06:37.000Z,5.66
2019-01-08T12:09:07.791Z,5.75
2019-01-08T12:11:38.641Z,5.68
2019-01-08T12:14:09.650Z,5.67
2019-01-08T12:16:41.172Z,5.70
2019-01-08T12:19:11.998Z,5.67
2019-01-08T12:21:43.528Z,5.70
2019-01-08T12:24:14.848Z,5.65
2019-01-08T12:26:46.172Z,5.65
2019-01-08T12:29:17.159Z,5.71
2019-01-08T12:31:48.244Z,5.71
2019-01-08T12:34:19.536Z,5.75
2019-01-08T12:36:50.550Z,5.75
2019-01-08T12:39:21.308Z,5.77
2019-01-08T12:41:52.679Z,5.72
2019-01-08T12:44:23.678Z,5.69
2019-01-08T12:46:54.471Z,5.70
2019-01-08T12:49:25.535Z,5.58
2019-01-08T12:51:56.312Z,5.61
2019-01-08T12:54:27.070Z,5.58
2019-01-08T12:56:57.848Z,5.55
2019-01-08T12:59:28.600Z,5.53
2019-01-08T13:01:59.749Z,5.54
2019-01-08T13:04:31.717Z,5.57
2019-01-08T13:07:02.493Z,5.60
2019-01-08T13:09:33.242Z,5.70
2019-01-08T13:12:04.020Z,5.64
2019-01-08T13:14:35.416Z,5.59
2019-01-08T13:17:11.347Z,5.58
2019-01-08T13:19:39.031Z,5.60
2019-01-08T13:22:10.123Z,5.56
2019-01-08T13:24:41.118Z,5.57
2019-01-08T13:27:11.893Z,5.52
2019-01-08T13:29:42.721Z,5.54
2019-01-08T13:32:13.564Z,5.58
2019-01-08T13:34:44.340Z,5.54
2019-01-08T13:37:15.112Z,5.46
2019-01-08T13:39:45.878Z,5.52
2019-01-08T13:42:16.973Z,5.52
2019-01-08T13:44:47.816Z,5.61
2019-01-08T13:47:18.591Z,5.58
2019-01-08T13:49:49.607Z,5.59
2019-01-08T13:52:20.687Z,5.65
2019-01-08T13:54:51.729Z,5.64
2019-01-08T13:57:22.747Z,5.64
2019-01-08T13:59:53.735Z,5.74
2019-01-08T14:02:31.844Z,5.72
2019-01-08T14:04:57.558Z,5.70
2019-01-08T14:07:28.335Z,5.82
2019-01-08T14:09:59.654Z,5.79
2019-01-08T14:12:30.944Z,5.76
2019-01-08T14:15:01.970Z,5.74
2019-01-08T14:17:32.814Z,5.73
2019-01-08T14:20:03.680Z,5.75
2019-01-08T14:22:34.621Z,5.81
2019-01-08T14:25:06.048Z,5.78
2019-01-08T14:27:36.827Z,5.83
2019-01-08T14:30:08.926Z,5.89
2019-01-08T14:32:40.794Z,5.88
2019-01-08T14:35:11.804Z,5.84
2019-01-08T14:37:42.595Z,5.80
2019-01-08T14:40:13.422Z,5.74
2019-01-08T14:42:44.440Z,5.71
2019-01-08T14:45:15.204Z,5.64
2019-01-08T14:47:45.975Z,5.52
2019-01-08T14:50:16.968Z,5.44
2019-01-08T14:52:48.131Z,5.45
2019-01-08T14:55:19.159Z,5.40
2019-01-08T14:57:50.521Z,5.33
2019-01-08T15:00:21.853Z,5.26
2019-01-08T15:02:53.141Z,5.23
2019-01-08T15:05:24.234Z,5.20
2019-01-08T15:07:55.999Z,5.19
2019-01-08T15:10:28.030Z,5.18
2019-01-08T15:12:59.142Z,5.22
2019-01-08T15:15:30.216Z,5.16
2019-01-08T15:18:03.371Z,5.17
2019-01-08T15:20:33.924Z,5.19
2019-01-08T15:23:04.846Z,5.19
2019-01-08T15:25:36.187Z,5.16
2019-01-08T15:28:07.541Z,5.15
2019-01-08T15:30:38.380Z,5.16
2019-01-08T15:33:09.645Z,5.16
2019-01-08T15:35:40.409Z,5.17
2019-01-08T15:38:11.506Z,5.13
2019-01-08T15:40:42.761Z,5.12
2019-01-08T15:43:13.892Z,5.11
2019-01-08T15:45:45.164Z,5.11
2019-01-08T15:48:16.451Z,5.15
2019-01-08T15:50:48.020Z,5.07
2019-01-08T15:53:19.613Z,5.05
2019-01-08T15:55:50.397Z,5.09
2019-01-08T15:58:21.733Z,5.13
2019-01-08T16:00:52.758Z,5.16
2019-01-08T16:03:23.542Z,5.11
2019-01-08T16:05:54.787Z,5.16
2019-01-08T16:08:25.822Z,5.14
2019-01-08T16:10:57.812Z,5.13
2019-01-08T16:13:28.876Z,5.08
2019-01-08T16:16:00.220Z,5.06
2019-01-08T16:18:32.333Z,5.05
2019-01-08T16:21:03.112Z,5.05
2019-01-08T16:23:33.871Z,5.06
2019-01-08T16:26:04.885Z,5.14
2019-01-08T16:28:36.204Z,5.31
2019-01-08T16:31:07.296Z,5.42
2019-01-08T16:33:38.060Z,5.43
2019-01-08T16:36:09.216Z,5.42
2019-01-08T16:38:40.207Z,5.23
2019-01-08T16:41:11.206Z,5.13
2019-01-08T16:43:42.196Z,5.13
2019-01-08T16:46:13.058Z,5.08
2019-01-08T16:48:44.056Z,5.10
2019-01-08T16:51:14.879Z,5.00
2019-01-08T16:53:45.639Z,4.96
2019-01-08T16:56:16.428Z,4.85
2019-01-08T16:58:48.453Z,4.78
2019-01-08T17:01:19.453Z,4.76
2019-01-08T17:03:50.206Z,4.73
2019-01-08T17:06:21.266Z,4.64
2019-01-08T17:08:52.579Z,4.61
2019-01-08T17:11:23.602Z,4.52
2019-01-08T17:13:54.346Z,4.47
2019-01-08T17:16:25.257Z,4.50
2019-01-08T17:18:56.335Z,4.47
2019-01-08T17:21:27.192Z,4.45
2019-01-08T17:23:58.628Z,4.48
2019-01-08T17:26:30.904Z,4.46
2019-01-08T17:29:02.636Z,4.48
2019-01-08T17:31:33.493Z,4.47
2019-01-08T17:34:04.488Z,4.55
2019-01-08T17:36:35.351Z,4.55
2019-01-08T17:39:07.623Z,4.54
2019-01-08T17:41:38.805Z,4.56
2019-01-08T17:44:10.373Z,4.56
2019-01-08T17:46:41.625Z,4.60
2019-01-08T17:49:12.688Z,4.66
2019-01-08T17:51:43.715Z,4.69
2019-01-08T17:54:14.501Z,4.76
2019-01-08T17:56:45.559Z,4.79
2019-01-08T17:59:18.724Z,4.74
2019-01-08T18:02:00.840Z,4.72
2019-01-08T18:04:32.884Z,4.68
2019-01-08T18:07:05.071Z,4.62
2019-01-08T18:09:36.079Z,4.56
2019-01-08T18:12:07.424Z,4.55
2019-01-08T18:14:38.540Z,4.48
2019-01-08T18:17:09.455Z,4.37
2019-01-08T18:19:40.296Z,4.34
2019-01-08T18:22:11.139Z,4.33
2019-01-08T18:24:42.157Z,4.35
2019-01-08T18:27:13.501Z,4.40
2019-01-08T18:29:44.264Z,4.41
2019-01-08T18:32:15.116Z,4.42
2019-01-08T18:34:45.875Z,4.45
2019-01-08T18:37:16.660Z,4.44
2019-01-08T18:39:47.923Z,4.42
2019-01-08T18:42:19.432Z,4.41
2019-01-08T18:44:50.600Z,4.43
2019-01-08T18:47:21.383Z,4.40
2019-01-08T18:49:52.881Z,4.42
2019-01-08T18:52:23.884Z,4.46
2019-01-08T18:54:54.882Z,4.50
2019-01-08T18:57:25.735Z,4.43
2019-01-08T18:59:56.967Z,4.44
2019-01-08T19:02:27.995Z,4.44
2019-01-08T19:04:58.767Z,4.45
2019-01-08T19:07:29.570Z,4.48
2019-01-08T19:10:06.180Z,4.55
2019-01-08T19:12:37.726Z,4.60
2019-01-08T19:15:09.467Z,4.59
2019-01-08T19:17:40.396Z,4.64
2019-01-08T19:20:11.381Z,4.58
2019-01-08T19:22:42.528Z,4.64
2019-01-08T19:25:13.606Z,4.61
2019-01-08T19:27:44.762Z,4.59
2019-01-08T19:30:15.557Z,4.63
2019-01-08T19:32:46.324Z,4.62
2019-01-08T19:35:17.317Z,4.63
2019-01-08T19:37:48.330Z,4.62
2019-01-08T19:40:19.440Z,4.58
2019-01-08T19:42:50.467Z,4.60
2019-01-08T19:45:21.371Z,4.62
2019-01-08T19:47:52.230Z,4.71
2019-01-08T19:50:22.993Z,4.82
2019-01-08T19:52:53.887Z,4.75
2019-01-08T19:55:24.653Z,4.80
2019-01-08T19:57:55.660Z,4.74
2019-01-08T20:00:26.968Z,4.73
2019-01-08T20:02:57.834Z,4.68
2019-01-08T20:05:29.071Z,4.65
2019-01-08T20:08:00.228Z,4.68
2019-01-08T20:10:31.006Z,4.71
2019-01-08T20:13:02.040Z,4.65
2019-01-08T20:15:33.162Z,4.73
2019-01-08T20:18:04.169Z,4.70
2019-01-08T20:20:34.928Z,4.73
2019-01-08T20:23:06.192Z,4.69
2019-01-08T20:25:36.973Z,4.70
2019-01-08T20:28:07.826Z,4.69
2019-01-08T20:30:38.837Z,4.65
2019-01-08T20:33:09.919Z,4.68
2019-01-08T20:35:40.683Z,4.70
2019-01-08T20:38:11.536Z,4.71
2019-01-08T20:40:42.697Z,4.77
2019-01-08T20:43:13.484Z,4.86
2019-01-08T20:45:44.247Z,4.92
2019-01-08T20:48:16.332Z,4.91
2019-01-08T20:50:47.105Z,4.91
2019-01-08T20:53:17.952Z,4.94
2019-01-08T20:55:48.942Z,4.93
2019-01-08T20:58:27.516Z,4.89
2019-01-08T21:00:52.877Z,4.71
2019-01-08T21:03:23.977Z,4.62
2019-01-08T21:05:55.221Z,4.57
2019-01-08T21:08:26.302Z,4.53
2019-01-08T21:10:57.327Z,4.44
2019-01-08T21:13:28.474Z,4.45
2019-01-08T21:15:59.733Z,4.41
2019-01-08T21:18:30.554Z,4.35
2019-01-08T21:21:01.798Z,4.35
2019-01-08T21:23:32.810Z,4.36
2019-01-08T21:26:03.802Z,4.49
2019-01-08T21:28:35.027Z,4.53
2019-01-08T21:31:06.091Z,4.52
2019-01-08T21:33:37.147Z,4.54
2019-01-08T21:36:08.484Z,4.52
2019-01-08T21:38:39.504Z,4.51
2019-01-08T21:41:10.559Z,4.48
2019-01-08T21:43:41.654Z,4.50
2019-01-08T21:46:12.412Z,4.45
2019-01-08T21:48:43.193Z,4.48
2019-01-08T21:51:13.964Z,4.43
2019-01-08T21:53:44.779Z,4.42
2019-01-08T21:56:15.783Z,4.42
2019-01-08T21:58:46.635Z,4.38
2019-01-08T22:01:17.404Z,4.39
2019-01-08T22:03:48.250Z,4.39
2019-01-08T22:06:19.307Z,4.40
2019-01-08T22:08:50.339Z,4.37
2019-01-08T22:11:21.585Z,4.30
2019-01-08T22:13:52.367Z,4.32
2019-01-08T22:16:23.372Z,4.38
2019-01-08T22:18:54.630Z,4.30
2019-01-08T22:21:25.896Z,4.26
2019-01-08T22:23:56.672Z,4.17
2019-01-08T22:26:27.933Z,4.13
2019-01-08T22:28:59.032Z,3.92
2019-01-08T22:31:30.023Z,3.89
2019-01-08T22:34:01.040Z,3.85
2019-01-08T22:36:32.801Z,3.85
2019-01-08T22:39:04.661Z,3.83
2019-01-08T22:41:37.084Z,3.90
2019-01-08T22:44:08.103Z,3.87
2019-01-08T22:46:38.869Z,3.88
2019-01-08T22:49:09.958Z,3.98
2019-01-08T22:51:41.287Z,4.03
2019-01-08T22:54:12.522Z,4.03
2019-01-08T22:56:43.720Z,3.99
2019-01-08T22:59:14.900Z,4.01
2019-01-08T23:01:48.206Z,3.89
2019-01-08T23:04:19.121Z,3.84
2019-01-08T23:06:50.438Z,3.85
2019-01-08T23:09:22.466Z,3.85
2019-01-08T23:11:53.556Z,3.77
2019-01-08T23:14:24.636Z,3.70
2019-01-08T23:16:55.782Z,3.57
2019-01-08T23:19:26.916Z,3.52
2019-01-08T23:21:57.980Z,3.56
2019-01-08T23:24:28.830Z,3.52
2019-01-08T23:27:00.092Z,3.54
2019-01-08T23:29:31.163Z,3.58
2019-01-08T23:32:01.996Z,3.61
2019-01-08T23:34:33.344Z,3.61
2019-01-08T23:37:04.412Z,3.61
2019-01-08T23:39:35.247Z,3.68
2019-01-08T23:42:06.318Z,3.71
2019-01-08T23:44:37.476Z,3.77
2019-01-08T23:47:09.522Z,3.72
2019-01-08T23:49:40.373Z,3.81
2019-01-08T23:52:22.600Z,3.83
2019-01-08T23:54:54.377Z,3.89
2019-01-08T23:57:25.517Z,3.89
2019-01-08T23:59:56.294Z,3.94
